Terminal Aerodrome Forecast
Issued by NWS Goodland, KS

Home | Current Version | Previous Version | Text Only | Print | Product List | Glossary On
Versions: 1 2 3 4 5 6 7 8 9 10 11 12 13 14 15 16 17 18 19 20 21 22 23 24
161
FTUS43 KGLD 251120
TAFGLD
TAF
KGLD 251120Z 2512/2612 22009KT P6SM SCT140
     FM251700 26011KT P6SM FEW250
     FM252300 32006KT P6SM SCT200
     FM260200 VRB05KT P6SM BKN070 BKN120
     FM260800 31005KT P6SM SCT070=

USA.gov is the U.S. government's official web portal to all federal, state and local government web resources and services.